Time;durP1;ratioP1;P1;durP2;ratioP2;P2;SDS_P1;SDS_P2;PMS_P1;PMS_P2;Temp;Humidity;BMP_temperature;BMP_pressure;BME280_temperature;BME280_humidity;BME280_pressure;Samples;Min_cycle;Max_cycle;Signal;HPM_P1;HPM_P2
2023/03/08 00:02:19;;;;;;;6.38;4.85;;;0.60;99.90;;;;;;5027990;28;20049;-70
2023/03/08 00:04:44;;;;;;;6.43;5.07;;;0.50;99.90;;;;;;5029170;28;20041;-70
2023/03/08 00:07:10;;;;;;;7.20;4.40;;;0.50;99.90;;;;;;5024382;28;20048;-71
2023/03/08 00:09:38;;;;;;;6.38;4.30;;;0.60;99.90;;;;;;5025922;28;20044;-70
2023/03/08 00:12:06;;;;;;;7.13;4.80;;;0.50;99.90;;;;;;5026813;28;20052;-70
2023/03/08 00:14:31;;;;;;;7.50;4.57;;;0.50;99.90;;;;;;5026635;28;20111;-70
2023/03/08 00:16:57;;;;;;;6.32;4.40;;;0.50;99.90;;;;;;5022498;28;20038;-70
2023/03/08 00:19:23;;;;;;;6.55;4.18;;;0.50;99.90;;;;;;5020652;28;20060;-70
2023/03/08 00:21:48;;;;;;;6.63;4.28;;;0.50;99.90;;;;;;5023548;28;20077;-70
2023/03/08 00:24:15;;;;;;;6.15;4.30;;;0.50;99.90;;;;;;5030909;28;20136;-72
2023/03/08 00:26:42;;;;;;;5.45;4.40;;;0.50;99.90;;;;;;5024250;28;20041;-70
2023/03/08 00:29:07;;;;;;;5.47;4.22;;;0.40;99.90;;;;;;5019748;28;20049;-70
2023/03/08 00:31:33;;;;;;;7.70;4.20;;;0.40;99.90;;;;;;5020466;28;20045;-70
2023/03/08 00:33:59;;;;;;;7.93;4.40;;;0.40;99.90;;;;;;5019429;28;20034;-70
2023/03/08 00:36:24;;;;;;;8.05;4.30;;;0.40;99.90;;;;;;5028264;28;20033;-70
2023/03/08 00:38:51;;;;;;;6.93;4.32;;;0.40;99.90;;;;;;5017266;28;20041;-70
2023/03/08 00:41:17;;;;;;;6.57;4.57;;;0.40;99.90;;;;;;5022610;28;20409;-70
2023/03/08 00:43:43;;;;;;;8.57;4.88;;;0.40;99.90;;;;;;5029388;28;20067;-70
2023/03/08 00:46:09;;;;;;;6.72;4.43;;;0.40;99.90;;;;;;5021869;28;20421;-70
2023/03/08 00:48:35;;;;;;;8.63;5.32;;;0.40;99.90;;;;;;5021454;28;20041;-71
2023/03/08 00:51:01;;;;;;;10.30;5.80;;;0.40;99.90;;;;;;5029364;28;20041;-70
2023/03/08 00:53:26;;;;;;;8.18;5.68;;;0.40;99.90;;;;;;5029803;28;20084;-70
2023/03/08 00:55:56;;;;;;;9.10;5.40;;;0.40;99.90;;;;;;5026106;28;20045;-70
2023/03/08 00:58:25;;;;;;;7.50;5.40;;;0.40;99.90;;;;;;5027320;28;20120;-70
2023/03/08 01:00:51;;;;;;;7.95;5.60;;;0.40;99.90;;;;;;4990619;28;1098982;-70
2023/03/08 01:03:17;;;;;;;8.02;5.75;;;0.40;99.90;;;;;;5027637;28;20042;-70
2023/03/08 01:05:48;;;;;;;8.52;6.18;;;0.40;99.90;;;;;;5025067;28;20087;-70
2023/03/08 01:08:15;;;;;;;7.75;5.95;;;0.40;99.90;;;;;;5023041;28;20057;-70
2023/03/08 01:10:50;;;;;;;7.43;5.47;;;0.40;99.90;;;;;;5023116;28;20033;-70
2023/03/08 01:13:16;;;;;;;7.80;5.90;;;0.30;99.90;;;;;;5018515;28;20052;-70
2023/03/08 01:15:42;;;;;;;8.32;5.63;;;0.30;99.90;;;;;;5028299;28;20049;-70
2023/03/08 01:18:08;;;;;;;8.23;5.80;;;0.30;99.90;;;;;;5023723;28;20065;-70
2023/03/08 01:20:34;;;;;;;8.70;5.90;;;0.30;99.90;;;;;;5022256;28;20104;-70
2023/03/08 01:23:00;;;;;;;8.32;6.05;;;0.30;99.90;;;;;;5021571;28;20049;-70
2023/03/08 01:25:26;;;;;;;8.23;5.82;;;0.30;99.90;;;;;;5026940;28;20049;-69
2023/03/08 01:27:52;;;;;;;8.75;6.15;;;0.30;99.90;;;;;;5040475;28;20396;-70
2023/03/08 01:30:17;;;;;;;8.43;5.82;;;0.30;99.90;;;;;;5017279;28;20038;-70
2023/03/08 01:32:46;;;;;;;9.00;6.35;;;0.30;99.90;;;;;;5020130;28;20034;-70
2023/03/08 01:35:12;;;;;;;11.65;6.28;;;0.30;99.90;;;;;;5028507;28;20527;-70
2023/03/08 01:37:37;;;;;;;8.43;6.43;;;0.30;99.90;;;;;;5024019;28;20144;-70
2023/03/08 01:40:05;;;;;;;9.93;6.80;;;0.30;99.90;;;;;;5019328;28;20049;-70
2023/03/08 01:42:31;;;;;;;;;;;0.30;99.90;;;;;;5027934;28;20091;-70
2023/03/08 01:45:00;;;;;;;10.20;7.13;;;0.30;99.90;;;;;;5019599;28;19921;-70
2023/03/08 01:47:31;;;;;;;9.35;7.97;;;0.30;99.90;;;;;;5024948;28;20041;-70
2023/03/08 01:50:02;;;;;;;10.50;7.80;;;0.30;99.90;;;;;;5019679;28;20103;-70
2023/03/08 01:52:33;;;;;;;11.43;8.45;;;0.30;99.90;;;;;;5013129;28;20388;-70
2023/03/08 01:55:04;;;;;;;10.80;8.23;;;0.30;99.90;;;;;;5024462;28;20042;-70
2023/03/08 01:57:33;;;;;;;13.45;8.57;;;0.40;99.90;;;;;;5022652;28;20112;-70
2023/03/08 02:00:08;;;;;;;12.23;8.77;;;0.40;99.90;;;;;;5039644;28;20057;-70
2023/03/08 02:02:40;;;;;;;10.57;7.88;;;0.40;99.90;;;;;;5023084;28;20499;-70
2023/03/08 02:05:09;;;;;;;12.38;9.07;;;0.40;99.90;;;;;;5022666;28;20038;-70
2023/03/08 02:07:35;;;;;;;11.77;9.55;;;0.40;99.90;;;;;;5026000;28;20540;-70
2023/03/08 02:10:00;;;;;;;12.95;9.50;;;0.40;99.90;;;;;;5017753;28;20042;-70
2023/03/08 02:12:26;;;;;;;12.63;8.63;;;0.40;99.90;;;;;;5016670;28;20033;-70
2023/03/08 02:14:52;;;;;;;11.73;9.45;;;0.40;99.90;;;;;;5025842;28;20183;-70
2023/03/08 02:17:18;;;;;;;13.07;9.70;;;0.40;99.90;;;;;;5024261;28;20130;-70
2023/03/08 02:19:51;;;;;;;12.60;9.65;;;0.40;99.90;;;;;;5024304;28;20784;-70
2023/03/08 02:22:18;;;;;;;13.35;10.07;;;0.40;99.90;;;;;;5016993;28;20124;-70
2023/03/08 02:24:44;;;;;;;14.68;10.27;;;0.40;99.90;;;;;;5022352;28;20054;-70
2023/03/08 02:27:33;;;;;;;13.88;10.73;;;0.40;99.90;;;;;;5037934;28;20509;-70
2023/03/08 02:29:59;;;;;;;14.80;10.10;;;0.40;99.90;;;;;;5018824;28;20053;-70
2023/03/08 02:32:25;;;;;;;13.23;10.52;;;0.40;99.90;;;;;;5028369;28;20041;-70
2023/03/08 02:34:50;;;;;;;14.52;10.38;;;0.40;99.90;;;;;;5023580;28;20072;-70
2023/03/08 02:37:16;;;;;;;15.07;11.00;;;0.30;99.90;;;;;;5023083;28;20053;-70
2023/03/08 02:39:41;;;;;;;14.93;11.80;;;0.30;99.90;;;;;;5026184;28;20045;-70
2023/03/08 02:42:07;;;;;;;13.63;12.13;;;0.30;99.90;;;;;;5022233;28;20137;-70
2023/03/08 02:44:33;;;;;;;17.55;11.27;;;0.30;99.90;;;;;;5027481;28;20088;-70
2023/03/08 02:46:58;;;;;;;15.45;11.63;;;0.20;99.90;;;;;;5017550;28;20056;-69
2023/03/08 02:49:24;;;;;;;13.68;11.73;;;0.30;99.90;;;;;;5026100;28;20386;-70
2023/03/08 02:51:49;;;;;;;15.63;12.05;;;0.20;99.90;;;;;;5016480;28;20044;-70
2023/03/08 02:54:15;;;;;;;17.60;12.60;;;0.30;99.90;;;;;;5022678;28;20040;-70
2023/03/08 02:56:41;;;;;;;15.00;12.32;;;0.20;99.90;;;;;;5022245;28;20816;-70
2023/03/08 02:59:06;;;;;;;15.85;12.75;;;0.20;99.90;;;;;;5016969;28;20044;-71
2023/03/08 03:01:32;;;;;;;14.50;11.60;;;0.20;99.90;;;;;;5018738;28;20095;-70
2023/03/08 03:03:58;;;;;;;17.20;12.55;;;0.20;99.90;;;;;;5025763;28;20045;-70
2023/03/08 03:06:23;;;;;;;16.60;12.80;;;0.20;99.90;;;;;;5025629;28;20353;-70
2023/03/08 03:08:49;;;;;;;19.10;12.60;;;0.20;99.90;;;;;;5022909;28;20061;-70
2023/03/08 03:11:17;;;;;;;16.25;12.23;;;0.20;99.90;;;;;;5024808;28;20042;-70
2023/03/08 03:13:44;;;;;;;15.70;12.77;;;0.20;99.90;;;;;;5013567;28;20355;-70
2023/03/08 03:16:12;;;;;;;14.05;12.55;;;0.20;99.90;;;;;;5017487;28;20561;-70
2023/03/08 03:18:38;;;;;;;16.48;12.38;;;0.20;99.90;;;;;;5018228;28;20084;-70
2023/03/08 03:21:07;;;;;;;16.23;12.48;;;0.20;99.90;;;;;;5024428;28;20520;-70
2023/03/08 03:23:32;;;;;;;17.08;12.70;;;0.20;99.90;;;;;;5023215;28;20053;-70
2023/03/08 03:26:10;;;;;;;20.40;12.70;;;0.20;99.90;;;;;;5013119;28;20041;-70
2023/03/08 03:28:35;;;;;;;14.38;11.75;;;0.20;99.90;;;;;;5021423;28;20050;-70
2023/03/08 03:31:05;;;;;;;16.27;12.63;;;0.20;99.90;;;;;;5016085;28;20432;-69
2023/03/08 03:33:31;;;;;;;16.13;12.27;;;0.20;99.90;;;;;;5023559;28;20558;-70
2023/03/08 03:35:56;;;;;;;17.05;11.77;;;0.20;99.90;;;;;;5023643;28;20120;-70
2023/03/08 03:38:22;;;;;;;15.32;11.68;;;0.30;99.90;;;;;;5021514;28;20037;-70
2023/03/08 03:40:47;;;;;;;16.00;11.45;;;0.20;99.90;;;;;;5013036;28;20045;-70
2023/03/08 03:43:13;;;;;;;18.38;11.35;;;0.20;99.90;;;;;;5025230;28;20044;-70
2023/03/08 03:45:39;;;;;;;14.85;11.88;;;0.20;99.90;;;;;;5016941;28;20050;-70
2023/03/08 03:48:05;;;;;;;15.73;12.00;;;0.10;99.90;;;;;;5017978;28;20041;-70
2023/03/08 03:50:30;;;;;;;15.40;11.15;;;0.10;99.90;;;;;;5025800;28;20045;-70
2023/03/08 03:52:56;;;;;;;14.20;10.63;;;0.10;99.90;;;;;;5018733;28;20109;-70
2023/03/08 03:55:22;;;;;;;14.63;10.98;;;0.10;99.90;;;;;;5023787;28;20049;-70
2023/03/08 03:57:50;;;;;;;16.38;10.88;;;0.10;99.90;;;;;;5031306;28;20041;-69
2023/03/08 04:00:16;;;;;;;15.57;10.65;;;0.10;99.90;;;;;;5031271;28;20084;-69
2023/03/08 04:02:42;;;;;;;13.40;10.90;;;0.00;99.90;;;;;;5031908;28;20037;-70
2023/03/08 04:05:07;;;;;;;12.88;10.15;;;0.00;99.90;;;;;;5025816;28;20060;-70
2023/03/08 04:07:33;;;;;;;13.75;10.52;;;0.00;99.90;;;;;;5017052;28;20439;-70
2023/03/08 04:09:59;;;;;;;13.75;10.98;;;0.00;99.90;;;;;;5028465;28;20037;-70
2023/03/08 04:12:24;;;;;;;15.82;10.60;;;0.00;99.90;;;;;;5029299;28;20480;-69
2023/03/08 04:14:52;;;;;;;14.13;10.55;;;-0.10;99.90;;;;;;5032406;28;20113;-70
2023/03/08 04:17:17;;;;;;;;;;;0.00;99.90;;;;;;5030164;28;20045;-70
2023/03/08 04:19:43;;;;;;;12.20;10.13;;;0.00;99.90;;;;;;5017441;28;20361;-70
2023/03/08 04:22:09;;;;;;;12.05;9.52;;;0.00;99.90;;;;;;5028713;28;20091;-70
2023/03/08 04:24:34;;;;;;;13.15;10.02;;;0.00;99.90;;;;;;5029522;28;20045;-69
2023/03/08 04:27:00;;;;;;;12.07;9.32;;;0.00;99.90;;;;;;5033730;28;20092;-70
2023/03/08 04:29:25;;;;;;;15.85;9.40;;;0.00;99.90;;;;;;5026396;28;20037;-70
2023/03/08 04:31:51;;;;;;;13.80;10.45;;;0.00;99.90;;;;;;5030296;28;20151;-70
2023/03/08 04:34:17;;;;;;;11.55;9.65;;;0.00;99.90;;;;;;5017817;28;20512;-69
2023/03/08 04:36:42;;;;;;;12.43;9.07;;;0.00;99.90;;;;;;5020676;28;20072;-69
2023/03/08 04:39:08;;;;;;;13.10;9.10;;;0.00;99.90;;;;;;5015969;28;20046;-69
2023/03/08 04:41:33;;;;;;;12.57;9.30;;;0.00;99.90;;;;;;5023882;28;20050;-69
2023/03/08 04:43:59;;;;;;;12.98;8.93;;;0.00;99.90;;;;;;5025156;28;20132;-69
2023/03/08 04:46:26;;;;;;;13.85;9.65;;;0.00;99.90;;;;;;5027038;28;20034;-69
2023/03/08 04:48:54;;;;;;;15.82;10.00;;;0.00;99.90;;;;;;5031075;28;20046;-69
2023/03/08 04:51:20;;;;;;;;;;;0.00;99.90;;;;;;5027811;28;20041;-70
2023/03/08 04:53:46;;;;;;;12.90;9.07;;;0.00;99.90;;;;;;5025594;28;19921;-70
2023/03/08 04:56:14;;;;;;;13.85;9.27;;;0.00;99.90;;;;;;5011881;28;20040;-70
2023/03/08 04:58:40;;;;;;;11.25;9.07;;;-0.10;99.90;;;;;;5016592;28;20401;-70
2023/03/08 05:01:17;;;;;;;13.40;8.88;;;-0.10;99.90;;;;;;5022370;28;20389;-70
2023/03/08 05:03:43;;;;;;;11.25;8.15;;;-0.20;99.90;;;;;;5025940;28;20389;-69
2023/03/08 05:06:10;;;;;;;9.90;8.30;;;-0.20;99.90;;;;;;5028092;28;20050;-69
2023/03/08 05:08:36;;;;;;;12.60;8.80;;;-0.20;99.90;;;;;;5019071;28;20041;-69
2023/03/08 05:11:03;;;;;;;10.65;8.23;;;-0.20;99.90;;;;;;5025185;28;20053;-69
2023/03/08 05:13:37;;;;;;;11.60;8.73;;;-0.30;99.90;;;;;;5028153;28;20049;-69
2023/03/08 05:16:04;;;;;;;14.98;9.52;;;-0.20;99.90;;;;;;5021051;28;20057;-68
2023/03/08 05:18:30;;;;;;;12.13;9.38;;;-0.30;99.90;;;;;;5020610;28;20034;-69
2023/03/08 05:20:58;;;;;;;12.20;9.13;;;-0.30;99.90;;;;;;5020346;28;20064;-69
2023/03/08 05:23:25;;;;;;;12.43;9.40;;;-0.30;99.90;;;;;;5011912;28;20164;-69
2023/03/08 05:25:56;;;;;;;13.77;9.00;;;-0.30;99.90;;;;;;5024006;28;20519;-69
2023/03/08 05:28:24;;;;;;;12.77;9.05;;;-0.30;99.90;;;;;;5022461;28;20038;-69
2023/03/08 05:31:00;;;;;;;10.98;8.73;;;-0.30;99.90;;;;;;5018624;28;20106;-69
2023/03/08 05:33:28;;;;;;;12.70;9.77;;;-0.30;99.90;;;;;;5029873;28;20042;-69
2023/03/08 05:35:54;;;;;;;11.80;8.88;;;-0.40;99.90;;;;;;5023350;28;20555;-69
2023/03/08 05:38:21;;;;;;;9.95;8.57;;;-0.40;99.90;;;;;;5025113;28;20138;-70
2023/03/08 05:40:47;;;;;;;12.13;8.53;;;-0.40;99.90;;;;;;5030979;28;20060;-69
2023/03/08 05:43:13;;;;;;;12.55;9.20;;;-0.40;99.90;;;;;;5025050;28;20037;-69
2023/03/08 05:45:38;;;;;;;13.35;9.77;;;-0.40;99.90;;;;;;5022573;28;20045;-69
2023/03/08 05:48:04;;;;;;;12.00;9.18;;;-0.40;99.90;;;;;;5019923;28;20426;-68
2023/03/08 05:50:30;;;;;;;11.80;9.45;;;-0.40;99.90;;;;;;5020632;28;20049;-69
2023/03/08 05:52:55;;;;;;;10.52;9.05;;;-0.40;99.90;;;;;;5028183;28;20068;-69
2023/03/08 05:55:21;;;;;;;13.05;9.77;;;-0.50;99.90;;;;;;5029932;28;20037;-69
2023/03/08 05:57:47;;;;;;;12.10;9.52;;;-0.50;99.90;;;;;;5029335;28;20543;-69
2023/03/08 06:00:13;;;;;;;13.85;11.00;;;-0.50;99.90;;;;;;5030072;28;20053;-69
2023/03/08 06:02:39;;;;;;;15.38;11.23;;;-0.50;99.90;;;;;;5026345;28;20504;-69
2023/03/08 06:05:05;;;;;;;13.98;11.27;;;-0.50;99.90;;;;;;5009462;28;20042;-69
2023/03/08 06:07:31;;;;;;;15.48;11.20;;;-0.40;99.90;;;;;;5043399;28;20393;-68
2023/03/08 06:09:56;;;;;;;16.30;11.93;;;-0.40;99.90;;;;;;5028616;28;20123;-69
2023/03/08 06:12:22;;;;;;;14.63;11.98;;;-0.40;99.90;;;;;;5027819;28;20067;-69
2023/03/08 06:14:47;;;;;;;17.00;12.20;;;-0.30;99.90;;;;;;5024436;28;20080;-69
2023/03/08 06:17:13;;;;;;;15.38;11.32;;;-0.30;99.90;;;;;;5025363;28;20069;-69
2023/03/08 06:19:39;;;;;;;14.43;11.88;;;-0.30;99.90;;;;;;5021928;28;20041;-69
2023/03/08 06:22:05;;;;;;;14.48;11.60;;;-0.20;99.90;;;;;;5029243;28;20041;-69
2023/03/08 06:24:31;;;;;;;14.98;12.30;;;-0.20;99.90;;;;;;5027105;28;20052;-69
2023/03/08 06:26:56;;;;;;;18.83;13.43;;;-0.20;99.90;;;;;;5026760;28;20034;-69
2023/03/08 06:29:22;;;;;;;25.35;17.58;;;-0.10;99.90;;;;;;5027777;28;20042;-70
2023/03/08 06:31:48;;;;;;;22.67;16.13;;;-0.10;99.90;;;;;;5020134;28;20491;-69
2023/03/08 06:34:13;;;;;;;24.30;15.63;;;-0.20;99.90;;;;;;5018171;28;20099;-69
2023/03/08 06:36:39;;;;;;;17.73;13.18;;;-0.20;99.90;;;;;;5022184;28;20041;-70
2023/03/08 06:39:05;;;;;;;15.55;12.13;;;-0.20;99.90;;;;;;5019843;28;20068;-69
2023/03/08 06:41:31;;;;;;;13.95;12.02;;;-0.20;99.90;;;;;;5026227;28;20112;-69
2023/03/08 06:43:57;;;;;;;15.23;12.23;;;-0.20;99.90;;;;;;5023536;28;20149;-69
2023/03/08 06:46:23;;;;;;;18.38;12.50;;;-0.20;99.90;;;;;;5018372;28;20060;-69
2023/03/08 06:48:49;;;;;;;16.20;11.77;;;-0.20;99.90;;;;;;5018505;28;20064;-70
2023/03/08 06:51:15;;;;;;;15.90;11.85;;;-0.20;99.90;;;;;;5016786;28;20045;-69
2023/03/08 06:53:41;;;;;;;18.02;13.13;;;-0.20;99.90;;;;;;5026472;28;20116;-68
2023/03/08 06:56:09;;;;;;;16.23;12.90;;;-0.20;99.90;;;;;;5026006;28;20117;-68
2023/03/08 06:58:36;;;;;;;19.45;15.13;;;-0.20;99.90;;;;;;5020386;28;20072;-69
2023/03/08 07:01:05;;;;;;;20.90;15.97;;;-0.10;99.90;;;;;;5022097;28;20061;-69
2023/03/08 07:03:32;;;;;;;22.65;16.40;;;-0.10;99.90;;;;;;5027682;28;20045;-68
2023/03/08 07:06:08;;;;;;;21.38;18.40;;;0.00;99.90;;;;;;5026199;28;20038;-69
2023/03/08 07:08:36;;;;;;;25.50;19.73;;;0.00;99.90;;;;;;5021757;28;20495;-69
2023/03/08 07:11:02;;;;;;;24.48;19.67;;;0.10;99.90;;;;;;5018091;28;20443;-68
2023/03/08 07:13:28;;;;;;;32.13;24.02;;;0.10;99.90;;;;;;5015949;28;20042;-68
2023/03/08 07:15:54;;;;;;;28.48;22.60;;;0.10;99.90;;;;;;5014862;28;20358;-68
2023/03/08 07:18:20;;;;;;;40.25;26.98;;;0.10;99.90;;;;;;5022849;28;20049;-68
2023/03/08 07:20:52;;;;;;;48.15;28.83;;;0.10;99.90;;;;;;5023064;28;20037;-69
2023/03/08 07:23:18;;;;;;;43.30;29.67;;;0.20;99.90;;;;;;5027334;28;20092;-69
2023/03/08 07:25:43;;;;;;;39.28;27.75;;;0.10;99.90;;;;;;5020274;28;20470;-68
2023/03/08 07:28:09;;;;;;;38.60;28.50;;;0.10;99.90;;;;;;5027596;28;20034;-69
2023/03/08 07:30:35;;;;;;;55.47;29.95;;;0.20;99.90;;;;;;5031941;28;20365;-69
2023/03/08 07:33:00;;;;;;;59.30;35.92;;;0.20;99.90;;;;;;5027198;28;20099;-69
2023/03/08 07:35:26;;;;;;;44.90;27.80;;;0.30;99.90;;;;;;5025743;28;20387;-71
2023/03/08 07:37:52;;;;;;;43.67;27.35;;;0.30;99.90;;;;;;5022021;28;20132;-71
2023/03/08 07:40:17;;;;;;;53.10;25.92;;;0.30;99.90;;;;;;5030970;28;20049;-70
2023/03/08 07:42:43;;;;;;;37.45;26.70;;;0.30;99.90;;;;;;5024417;28;20041;-70
2023/03/08 07:45:11;;;;;;;41.63;26.50;;;0.30;99.90;;;;;;5027283;28;20535;-78
2023/03/08 07:47:37;;;;;;;36.63;25.40;;;0.30;99.90;;;;;;5022430;28;20033;-70
2023/03/08 07:50:03;;;;;;;44.38;26.08;;;0.30;99.90;;;;;;5024925;28;20737;-67
2023/03/08 07:52:29;;;;;;;44.45;28.80;;;0.30;99.90;;;;;;5030300;28;20037;-68
2023/03/08 07:54:56;;;;;;;44.20;28.77;;;0.40;99.90;;;;;;5024432;28;20049;-68
2023/03/08 07:57:22;;;;;;;60.22;33.45;;;0.40;99.90;;;;;;5033011;28;20041;-69
2023/03/08 07:59:49;;;;;;;59.83;35.33;;;0.40;99.90;;;;;;5018692;28;20397;-69
2023/03/08 08:02:16;;;;;;;81.18;44.17;;;0.40;99.90;;;;;;5013210;28;20058;-69
2023/03/08 08:04:41;;;;;;;61.90;34.63;;;0.50;99.90;;;;;;5022602;28;20033;-69
2023/03/08 08:07:12;;;;;;;40.78;26.88;;;0.40;99.90;;;;;;5029179;28;20033;-69
2023/03/08 08:09:41;;;;;;;38.53;26.17;;;0.50;99.90;;;;;;5032874;28;20049;-69
2023/03/08 08:12:07;;;;;;;46.50;30.00;;;0.50;99.90;;;;;;5030184;28;20084;-69
2023/03/08 08:14:33;;;;;;;48.47;28.33;;;0.60;99.90;;;;;;5015128;28;20052;-70
2023/03/08 08:16:59;;;;;;;39.58;25.83;;;0.60;99.90;;;;;;5030183;28;20050;-69
2023/03/08 08:19:25;;;;;;;39.88;26.75;;;0.60;99.90;;;;;;5032604;28;20534;-69
2023/03/08 08:21:51;;;;;;;43.53;26.45;;;0.70;99.90;;;;;;5018749;28;20046;-69
2023/03/08 08:24:17;;;;;;;37.25;26.40;;;0.70;99.90;;;;;;5021383;28;20048;-67
2023/03/08 08:26:42;;;;;;;36.22;23.60;;;0.70;99.90;;;;;;5016267;28;20483;-69
2023/03/08 08:29:08;;;;;;;35.58;25.02;;;0.70;99.90;;;;;;5027547;28;20045;-69
2023/03/08 08:31:34;;;;;;;35.35;23.65;;;0.70;99.90;;;;;;5030645;28;20045;-69
2023/03/08 08:34:00;;;;;;;51.83;25.88;;;0.70;99.90;;;;;;5029129;28;20087;-70
2023/03/08 08:36:26;;;;;;;43.85;25.27;;;0.80;99.90;;;;;;5026466;28;20034;-69
2023/03/08 08:38:55;;;;;;;37.95;24.98;;;0.80;99.90;;;;;;5017276;28;20044;-69
2023/03/08 08:41:22;;;;;;;38.75;21.90;;;0.80;99.90;;;;;;5029668;28;20052;-71
2023/03/08 08:43:48;;;;;;;31.67;21.77;;;0.80;99.90;;;;;;5026683;28;20056;-71
2023/03/08 08:46:15;;;;;;;33.65;22.73;;;0.90;99.90;;;;;;5022445;28;20049;-71
2023/03/08 08:48:41;;;;;;;41.80;23.02;;;0.90;99.90;;;;;;5028208;28;20486;-70
2023/03/08 08:51:10;;;;;;;37.88;24.75;;;0.90;99.90;;;;;;5031661;28;20523;-70
2023/03/08 08:53:36;;;;;;;38.38;24.52;;;0.90;99.90;;;;;;5031394;28;20503;-68
2023/03/08 08:56:19;;;;;;;34.15;22.33;;;1.00;99.90;;;;;;5031217;28;20079;-69
2023/03/08 08:58:46;;;;;;;32.17;20.85;;;1.00;99.90;;;;;;5030884;28;20488;-69
2023/03/08 09:01:24;;;;;;;30.55;19.17;;;1.00;99.90;;;;;;5030867;28;20058;-69
2023/03/08 09:03:50;;;;;;;34.60;22.73;;;1.00;99.90;;;;;;5032627;28;20065;-69
2023/03/08 09:06:18;;;;;;;34.90;22.33;;;1.10;99.90;;;;;;5032041;28;20046;-68
2023/03/08 09:08:47;;;;;;;37.33;23.60;;;1.10;99.90;;;;;;5018500;28;20054;-69
2023/03/08 09:11:13;;;;;;;31.95;21.20;;;1.20;99.90;;;;;;5031765;28;20054;-68
2023/03/08 09:13:40;;;;;;;33.30;21.95;;;1.20;99.90;;;;;;5030413;28;20048;-68
2023/03/08 09:16:06;;;;;;;;;;;1.20;99.90;;;;;;5031968;28;20052;-70
2023/03/08 09:18:31;;;;;;;45.67;26.77;;;1.20;99.90;;;;;;5034689;28;20015;-69
2023/03/08 09:21:01;;;;;;;72.50;36.13;;;1.20;99.90;;;;;;5030396;28;20034;-69
2023/03/08 09:23:27;;;;;;;73.20;37.25;;;1.30;99.90;;;;;;5024717;28;20054;-69
2023/03/08 09:25:56;;;;;;;63.33;32.40;;;1.30;99.90;;;;;;5012251;28;20140;-69
2023/03/08 09:28:22;;;;;;;41.53;26.23;;;1.30;99.90;;;;;;5021146;28;20408;-72
2023/03/08 09:30:48;;;;;;;31.95;22.83;;;1.30;99.90;;;;;;5027051;28;20033;-69
2023/03/08 09:33:14;;;;;;;30.85;19.98;;;1.30;99.90;;;;;;5025956;28;20050;-71
2023/03/08 09:35:39;;;;;;;34.60;23.33;;;1.40;99.90;;;;;;5031240;28;20052;-69
2023/03/08 09:38:05;;;;;;;33.15;21.33;;;1.40;99.90;;;;;;5029855;28;20045;-70
2023/03/08 09:40:40;;;;;;;36.50;23.45;;;1.40;99.90;;;;;;5034252;28;20045;-70
2023/03/08 09:43:12;;;;;;;62.00;34.92;;;1.40;99.90;;;;;;5046770;28;20064;-70
2023/03/08 09:45:37;;;;;;;70.43;35.65;;;1.40;99.90;;;;;;5030611;28;20566;-70
2023/03/08 09:48:18;;;;;;;54.42;29.58;;;1.50;99.90;;;;;;5032234;28;20081;-70
2023/03/08 09:50:53;;;;;;;42.47;25.15;;;1.50;99.90;;;;;;5029168;28;20045;-70
2023/03/08 09:53:24;;;;;;;33.38;22.45;;;1.60;99.90;;;;;;5027239;28;20049;-70
2023/03/08 09:56:30;;;;;;;31.90;21.60;;;1.60;99.90;;;;;;5030930;28;20048;-70
2023/03/08 09:59:13;;;;;;;31.30;21.75;;;1.60;99.90;;;;;;5029898;28;20064;-70
2023/03/08 10:01:57;;;;;;;35.83;22.60;;;1.70;99.90;;;;;;5031467;28;20037;-70
2023/03/08 10:04:33;;;;;;;33.70;22.40;;;1.70;99.90;;;;;;5031403;28;20053;-70
2023/03/08 10:07:25;;;;;;;36.63;23.63;;;1.80;99.90;;;;;;5026021;28;20040;-69
2023/03/08 10:10:25;;;;;;;38.85;23.15;;;1.90;99.90;;;;;;5016370;28;20049;-70
2023/03/08 10:13:08;;;;;;;38.63;24.08;;;1.90;99.90;;;;;;5011899;28;20045;-70
2023/03/08 10:15:40;;;;;;;40.22;23.83;;;1.90;99.90;;;;;;5018053;28;20045;-69
2023/03/08 10:18:34;;;;;;;35.78;23.15;;;1.90;99.90;;;;;;5022320;28;20065;-68
2023/03/08 10:21:00;;;;;;;37.40;22.30;;;2.00;99.90;;;;;;5022768;28;20216;-69
2023/03/08 10:23:31;;;;;;;38.70;24.63;;;2.00;99.90;;;;;;5017148;28;20048;-68
2023/03/08 10:25:57;;;;;;;38.30;23.30;;;2.10;99.90;;;;;;5025401;28;20049;-68
2023/03/08 10:28:25;;;;;;;36.08;22.90;;;2.10;99.90;;;;;;5027945;28;20099;-69
2023/03/08 10:30:57;;;;;;;36.60;23.73;;;2.20;99.90;;;;;;5029511;28;20042;-70
2023/03/08 10:33:25;;;;;;;33.47;21.70;;;2.30;99.90;;;;;;5028500;28;20061;-69
2023/03/08 10:36:01;;;;;;;34.95;23.52;;;2.20;99.90;;;;;;5026408;28;20137;-69
2023/03/08 10:38:33;;;;;;;34.72;24.23;;;2.30;99.90;;;;;;5017464;28;20057;-69
2023/03/08 10:41:03;;;;;;;39.00;25.27;;;2.40;99.90;;;;;;5020536;28;20497;-69
2023/03/08 10:43:35;;;;;;;42.38;26.55;;;2.50;99.90;;;;;;5028732;28;20488;-68
2023/03/08 10:46:10;;;;;;;41.38;25.85;;;2.50;99.90;;;;;;5022077;28;20045;-69
2023/03/08 10:48:36;;;;;;;50.28;31.33;;;2.60;99.90;;;;;;5022699;28;20068;-68
2023/03/08 10:51:04;;;;;;;52.50;31.25;;;2.70;99.90;;;;;;5029669;28;20464;-69
2023/03/08 10:53:32;;;;;;;63.72;34.20;;;2.80;99.90;;;;;;5027171;28;20138;-68
2023/03/08 10:55:59;;;;;;;80.10;45.00;;;2.80;99.90;;;;;;5024497;28;20049;-68
2023/03/08 10:58:29;;;;;;;87.65;43.33;;;3.00;99.90;;;;;;5016667;28;20081;-68
2023/03/08 11:00:57;;;;;;;91.00;45.47;;;3.00;99.90;;;;;;5034716;28;20057;-68
2023/03/08 11:03:24;;;;;;;98.97;51.40;;;3.10;99.90;;;;;;5033821;28;20049;-68
2023/03/08 11:06:19;;;;;;;91.25;50.40;;;3.10;99.90;;;;;;5032999;28;20041;-68
2023/03/08 11:08:54;;;;;;;83.55;45.50;;;3.20;99.90;;;;;;5031246;28;20060;-68
2023/03/08 11:11:23;;;;;;;90.10;50.03;;;3.20;99.90;;;;;;5027944;28;20037;-68
2023/03/08 11:13:50;;;;;;;81.88;48.00;;;3.30;99.90;;;;;;5022810;28;20038;-68
2023/03/08 11:16:44;;;;;;;62.45;34.45;;;3.40;99.90;;;;;;5030224;28;20488;-68
2023/03/08 11:19:16;;;;;;;60.35;33.35;;;3.40;99.90;;;;;;5031106;28;20431;-68
2023/03/08 11:21:47;;;;;;;62.75;40.65;;;3.40;99.90;;;;;;5023468;28;20116;-69
2023/03/08 11:24:25;;;;;;;39.58;26.05;;;3.50;99.90;;;;;;5032547;28;20048;-68
2023/03/08 11:27:17;;;;;;;32.97;23.58;;;3.50;99.90;;;;;;5024553;28;20053;-68
2023/03/08 11:30:34;;;;;;;31.35;21.00;;;3.50;99.90;;;;;;5031217;28;20140;-70
2023/03/08 11:33:14;;;;;;;29.38;20.27;;;3.50;99.90;;;;;;5016056;28;20061;-69
2023/03/08 11:35:45;;;;;;;29.20;19.45;;;3.40;99.90;;;;;;5028005;28;20048;-69
2023/03/08 11:38:29;;;;;;;31.52;21.45;;;3.40;99.90;;;;;;5030370;28;20132;-69
2023/03/08 11:41:19;;;;;;;26.75;18.95;;;3.40;99.90;;;;;;5023443;28;20396;-69
2023/03/08 11:43:48;;;;;;;26.35;18.58;;;3.40;99.90;;;;;;5025619;28;20053;-69
2023/03/08 11:46:49;;;;;;;27.90;20.40;;;3.40;99.90;;;;;;5019498;28;20486;-69
2023/03/08 11:49:51;;;;;;;29.45;19.80;;;3.40;99.90;;;;;;5029054;28;20144;-69
2023/03/08 11:52:35;;;;;;;28.73;18.83;;;3.50;99.90;;;;;;5023160;28;20060;-69
2023/03/08 11:55:34;;;;;;;28.90;19.65;;;3.60;99.90;;;;;;5031083;28;20393;-70
2023/03/08 11:58:22;;;;;;;30.77;21.75;;;3.60;99.90;;;;;;5026683;28;20037;-69
2023/03/08 12:00:49;;;;;;;;;;;3.60;99.90;;;;;;5025859;28;20112;-70
2023/03/08 12:03:19;;;;;;;27.17;18.00;;;3.60;99.90;;;;;;5022241;28;19936;-70
2023/03/08 12:05:55;;;;;;;29.15;21.20;;;3.70;99.90;;;;;;5026932;28;20057;-70
2023/03/08 12:08:30;;;;;;;30.52;18.90;;;3.70;99.90;;;;;;5026070;28;20140;-70
2023/03/08 12:11:10;;;;;;;30.08;22.30;;;3.70;99.90;;;;;;5020184;28;20531;-70
2023/03/08 12:13:38;;;;;;;32.83;23.10;;;3.80;99.90;;;;;;5024710;28;20496;-70
2023/03/08 12:16:18;;;;;;;27.75;18.52;;;3.70;99.90;;;;;;5023612;28;20659;-70
2023/03/08 12:19:14;;;;;;;30.20;21.35;;;3.80;99.90;;;;;;5020686;28;20043;-70
2023/03/08 12:21:58;;;;;;;29.60;19.45;;;3.80;99.90;;;;;;5026110;28;21100;-71
2023/03/08 12:24:39;;;;;;;32.70;23.58;;;3.80;99.90;;;;;;5025699;28;20041;-71
2023/03/08 12:27:28;;;;;;;38.53;24.92;;;3.80;99.90;;;;;;5024820;28;20046;-71
2023/03/08 12:30:03;;;;;;;33.72;23.33;;;3.90;99.90;;;;;;5019219;28;20049;-71
2023/03/08 12:32:30;;;;;;;37.13;24.90;;;3.80;99.90;;;;;;5029170;28;20041;-71
2023/03/08 12:35:05;;;;;;;35.42;25.27;;;3.80;99.90;;;;;;5030589;28;20081;-71
2023/03/08 12:37:31;;;;;;;32.78;22.67;;;3.70;99.90;;;;;;5024883;28;20509;-71
2023/03/08 12:40:06;;;;;;;30.42;21.70;;;3.70;99.90;;;;;;5019964;28;20046;-71
2023/03/08 12:42:35;;;;;;;25.73;20.80;;;3.70;99.90;;;;;;5023703;28;20037;-72
2023/03/08 12:45:22;;;;;;;30.63;19.90;;;3.70;99.90;;;;;;5017442;28;20091;-72
2023/03/08 12:48:05;;;;;;;26.73;18.77;;;3.80;99.90;;;;;;5020186;28;20388;-72
2023/03/08 12:50:39;;;;;;;25.73;19.30;;;3.80;99.90;;;;;;5023439;28;20048;-72
2023/03/08 12:53:31;;;;;;;28.67;21.33;;;3.80;99.90;;;;;;5023084;28;20064;-72